Time;durP1;ratioP1;P1;durP2;ratioP2;P2;SDS_P1;SDS_P2;PMS_P1;PMS_P2;Temp;Humidity;BMP_temperature;BMP_pressure;BME280_temperature;BME280_humidity;BME280_pressure;Samples;Min_cycle;Max_cycle;Signal;HPM_P1;HPM_P2
2022/09/18 00:04:15;;;;;;;0.88;0.88;;;;;;;;;;10289656;28;20469;-64
2022/09/18 00:09:14;;;;;;;1.45;0.90;;;;;;;;;;10288229;28;20083;-65
2022/09/18 00:14:15;;;;;;;1.63;1.00;;;;;;;;;;10286122;28;20068;-64
2022/09/18 00:19:15;;;;;;;2.35;0.98;;;;;;;;;;10288096;28;20302;-64
2022/09/18 00:24:16;;;;;;;3.50;1.05;;;;;;;;;;10283071;28;20107;-64
2022/09/18 00:29:15;;;;;;;2.33;1.08;;;;;;;;;;10280158;28;20091;-64
2022/09/18 00:34:15;;;;;;;2.60;1.30;;;;;;;;;;10286450;28;20736;-62
2022/09/18 00:39:14;;;;;;;3.42;1.45;;;;;;;;;;10286145;28;20083;-63
2022/09/18 00:44:39;;;;;;;3.22;0.98;;;;;;;;;;10285976;28;20060;-63
2022/09/18 00:49:40;;;;;;;2.10;1.35;;;;;;;;;;10244710;28;20080;-63
2022/09/18 00:54:39;;;;;;;4.03;1.40;;;;;;;;;;10283083;28;20085;-63
2022/09/18 00:59:40;;;;;;;4.63;1.50;;;;;;;;;;10285276;28;20068;-63
2022/09/18 01:04:40;;;;;;;4.00;2.05;;;;;;;;;;10285956;28;20083;-63
2022/09/18 01:09:42;;;;;;;8.43;2.97;;;;;;;;;;10286431;28;20056;-62
2022/09/18 01:14:43;;;;;;;6.88;2.95;;;;;;;;;;10293410;28;20080;-63
2022/09/18 01:20:00;;;;;;;4.18;2.70;;;;;;;;;;10280635;28;20052;-63
2022/09/18 01:25:06;;;;;;;6.30;2.97;;;;;;;;;;10278559;28;20049;-62
2022/09/18 01:30:07;;;;;;;8.45;2.15;;;;;;;;;;10283940;28;20077;-63
2022/09/18 01:35:08;;;;;;;5.85;1.50;;;;;;;;;;10282404;28;20083;-64
2022/09/18 01:40:30;;;;;;;5.07;1.08;;;;;;;;;;10282609;28;20456;-64
2022/09/18 01:45:32;;;;;;;3.13;0.85;;;;;;;;;;10282344;28;20064;-63
2022/09/18 01:50:31;;;;;;;1.38;1.02;;;;;;;;;;10285966;28;20091;-63
2022/09/18 01:55:30;;;;;;;3.40;1.35;;;;;;;;;;10285036;28;20075;-63
2022/09/18 02:00:30;;;;;;;5.88;0.90;;;;;;;;;;10284849;28;20068;-63
2022/09/18 02:05:32;;;;;;;5.05;1.30;;;;;;;;;;10281221;28;20072;-63
2022/09/18 02:10:32;;;;;;;5.97;0.90;;;;;;;;;;10282813;28;20045;-63
2022/09/18 02:15:36;;;;;;;2.78;0.93;;;;;;;;;;10279537;28;20092;-64
2022/09/18 02:20:42;;;;;;;2.22;0.90;;;;;;;;;;10279358;28;20086;-63
2022/09/18 02:25:43;;;;;;;3.13;0.90;;;;;;;;;;10280823;28;20467;-63
2022/09/18 02:30:43;;;;;;;3.72;0.68;;;;;;;;;;10279286;28;20079;-63
2022/09/18 02:35:45;;;;;;;1.30;0.70;;;;;;;;;;10285623;28;20119;-63
2022/09/18 02:40:50;;;;;;;2.33;0.60;;;;;;;;;;10285963;28;20091;-61
2022/09/18 02:45:53;;;;;;;1.63;0.75;;;;;;;;;;10277424;28;20209;-63
2022/09/18 02:50:56;;;;;;;0.80;0.80;;;;;;;;;;10282018;28;20076;-64
2022/09/18 02:56:01;;;;;;;8.75;1.27;;;;;;;;;;10284827;28;20087;-63
2022/09/18 03:01:04;;;;;;;3.60;1.02;;;;;;;;;;10281572;28;20435;-63
2022/09/18 03:06:03;;;;;;;4.53;0.93;;;;;;;;;;10280671;28;20072;-63
2022/09/18 03:11:04;;;;;;;3.92;0.90;;;;;;;;;;10282968;28;20049;-62
2022/09/18 03:16:04;;;;;;;5.07;0.70;;;;;;;;;;10277106;28;20084;-63
2022/09/18 03:21:03;;;;;;;2.40;0.93;;;;;;;;;;10281740;28;20075;-63
2022/09/18 03:26:03;;;;;;;9.48;1.00;;;;;;;;;;10281331;28;20052;-61
2022/09/18 03:31:05;;;;;;;8.90;0.90;;;;;;;;;;10274879;28;20060;-62
2022/09/18 03:36:04;;;;;;;3.38;0.98;;;;;;;;;;10282437;28;20095;-62
2022/09/18 03:41:05;;;;;;;3.80;0.70;;;;;;;;;;10288695;28;20083;-63
2022/09/18 03:46:10;;;;;;;2.70;1.00;;;;;;;;;;10285474;28;20095;-63
2022/09/18 03:51:08;;;;;;;1.02;1.00;;;;;;;;;;10291681;28;20076;-63
2022/09/18 03:56:06;;;;;;;4.43;1.20;;;;;;;;;;10294803;28;20064;-63
2022/09/18 04:01:24;;;;;;;1.00;1.00;;;;;;;;;;10295414;28;20075;-63
2022/09/18 04:06:49;;;;;;;7.47;1.65;;;;;;;;;;10287717;28;20540;-63
2022/09/18 04:12:06;;;;;;;7.60;1.40;;;;;;;;;;10291309;28;20083;-64
2022/09/18 04:17:06;;;;;;;5.85;1.42;;;;;;;;;;10290032;28;20081;-63
2022/09/18 04:22:05;;;;;;;6.47;1.70;;;;;;;;;;10283364;28;20064;-62
2022/09/18 04:27:03;;;;;;;1.55;1.42;;;;;;;;;;10289977;28;20091;-64
2022/09/18 04:32:02;;;;;;;1.40;1.30;;;;;;;;;;10287904;28;20077;-64
2022/09/18 04:37:01;;;;;;;5.30;1.67;;;;;;;;;;10282245;28;20079;-63
2022/09/18 04:42:07;;;;;;;5.55;1.30;;;;;;;;;;10288275;28;20065;-63
2022/09/18 04:47:06;;;;;;;5.95;1.38;;;;;;;;;;10282678;28;20073;-64
2022/09/18 04:52:06;;;;;;;4.72;1.40;;;;;;;;;;10282883;28;20069;-64
2022/09/18 04:57:04;;;;;;;3.20;1.20;;;;;;;;;;10282713;28;20076;-64
2022/09/18 05:02:02;;;;;;;2.33;1.35;;;;;;;;;;10280053;28;20082;-63
2022/09/18 05:07:03;;;;;;;8.77;1.38;;;;;;;;;;10289485;28;20060;-62
2022/09/18 05:12:06;;;;;;;3.58;1.52;;;;;;;;;;10283543;28;20506;-63
2022/09/18 05:17:06;;;;;;;1.83;1.20;;;;;;;;;;10281151;28;20491;-64
2022/09/18 05:22:07;;;;;;;3.20;1.52;;;;;;;;;;10280226;28;20099;-63
2022/09/18 05:27:11;;;;;;;4.90;1.92;;;;;;;;;;10281432;28;20099;-62
2022/09/18 05:32:09;;;;;;;4.28;1.70;;;;;;;;;;10277238;28;20071;-62
2022/09/18 05:37:09;;;;;;;3.67;1.40;;;;;;;;;;10281195;28;20072;-63
2022/09/18 05:42:11;;;;;;;8.63;1.98;;;;;;;;;;10277421;28;20087;-63
2022/09/18 05:47:10;;;;;;;4.40;1.33;;;;;;;;;;10286987;28;20079;-64
2022/09/18 05:52:10;;;;;;;4.03;1.30;;;;;;;;;;10281375;28;20072;-64
2022/09/18 05:57:10;;;;;;;5.60;1.35;;;;;;;;;;10285504;28;20111;-63
2022/09/18 06:02:10;;;;;;;2.22;1.75;;;;;;;;;;10280059;28;20087;-62
2022/09/18 06:07:34;;;;;;;3.30;1.20;;;;;;;;;;10276723;28;20530;-63
2022/09/18 06:12:34;;;;;;;2.83;1.35;;;;;;;;;;10284147;28;20099;-63
2022/09/18 06:17:32;;;;;;;7.00;1.67;;;;;;;;;;10287432;28;20084;-62
2022/09/18 06:22:33;;;;;;;4.85;1.90;;;;;;;;;;10293085;28;20092;-64
2022/09/18 06:27:34;;;;;;;6.65;2.00;;;;;;;;;;10287531;28;20997;-63
2022/09/18 06:32:37;;;;;;;6.75;1.58;;;;;;;;;;10290388;28;20541;-63
2022/09/18 06:37:35;;;;;;;12.07;2.13;;;;;;;;;;10278336;28;20080;-63
2022/09/18 06:42:43;;;;;;;6.78;2.13;;;;;;;;;;10278041;28;20071;-62
2022/09/18 06:48:06;;;;;;;6.90;2.83;;;;;;;;;;10280533;28;20076;-63
2022/09/18 06:53:07;;;;;;;5.03;2.33;;;;;;;;;;10278760;28;20073;-63
2022/09/18 06:58:20;;;;;;;8.25;2.03;;;;;;;;;;10280342;28;20167;-64
2022/09/18 07:03:21;;;;;;;4.70;2.78;;;;;;;;;;10278776;28;20072;-63
2022/09/18 07:08:41;;;;;;;9.88;3.65;;;;;;;;;;10286118;28;20156;-63
2022/09/18 07:13:52;;;;;;;11.93;2.30;;;;;;;;;;10287075;28;20514;-64
2022/09/18 07:18:50;;;;;;;4.45;1.92;;;;;;;;;;10286609;28;20466;-63
2022/09/18 07:23:50;;;;;;;8.63;3.28;;;;;;;;;;10293426;28;20080;-63
2022/09/18 07:28:51;;;;;;;11.32;4.07;;;;;;;;;;10290653;28;20182;-62
2022/09/18 07:33:56;;;;;;;10.60;2.25;;;;;;;;;;10286183;28;20091;-63
2022/09/18 07:38:58;;;;;;;18.65;2.22;;;;;;;;;;10290248;28;20072;-63
2022/09/18 07:44:04;;;;;;;5.75;2.03;;;;;;;;;;10289731;28;20080;-63
2022/09/18 07:49:04;;;;;;;8.15;2.00;;;;;;;;;;10290159;28;20084;-63
2022/09/18 07:54:02;;;;;;;7.97;1.70;;;;;;;;;;10290561;28;20075;-63
2022/09/18 07:59:19;;;;;;;8.52;2.33;;;;;;;;;;10286946;28;20338;-63
2022/09/18 08:04:25;;;;;;;10.70;1.90;;;;;;;;;;10290154;28;20091;-64
2022/09/18 08:09:43;;;;;;;5.75;1.65;;;;;;;;;;10282744;28;20611;-63
2022/09/18 08:14:53;;;;;;;20.63;6.68;;;;;;;;;;10284736;28;20080;-63
2022/09/18 08:19:57;;;;;;;12.70;2.50;;;;;;;;;;10291333;28;20623;-64
2022/09/18 08:25:12;;;;;;;8.55;1.90;;;;;;;;;;10279722;28;20088;-62
2022/09/18 08:30:14;;;;;;;22.08;1.83;;;;;;;;;;10281511;28;20069;-62
2022/09/18 08:35:16;;;;;;;2.92;1.20;;;;;;;;;;10286394;28;20091;-63
2022/09/18 08:40:18;;;;;;;4.10;1.55;;;;;;;;;;10286895;28;20094;-63
2022/09/18 08:45:33;;;;;;;15.82;1.83;;;;;;;;;;10284993;28;20107;-62
2022/09/18 08:50:37;;;;;;;7.18;1.70;;;;;;;;;;10286478;28;20087;-63
2022/09/18 08:55:41;;;;;;;13.38;1.73;;;;;;;;;;10287477;28;20076;-62
2022/09/18 09:00:44;;;;;;;9.80;2.55;;;;;;;;;;10295896;28;20458;-63
2022/09/18 09:06:07;;;;;;;3.92;1.67;;;;;;;;;;10288930;28;20538;-62
2022/09/18 09:11:09;;;;;;;3.95;1.35;;;;;;;;;;10275645;28;20068;-63
2022/09/18 09:16:14;;;;;;;3.50;1.73;;;;;;;;;;10282181;28;20088;-63
2022/09/18 09:21:21;;;;;;;7.33;2.03;;;;;;;;;;10284695;28;20407;-63
2022/09/18 09:26:23;;;;;;;12.35;1.55;;;;;;;;;;10280051;28;20083;-62
2022/09/18 09:31:53;;;;;;;5.60;1.92;;;;;;;;;;10291853;28;20080;-63
2022/09/18 09:37:34;;;;;;;8.25;1.83;;;;;;;;;;10285921;28;20083;-62
2022/09/18 09:42:35;;;;;;;6.70;1.73;;;;;;;;;;10287014;28;20080;-64
2022/09/18 09:47:40;;;;;;;12.35;2.80;;;;;;;;;;10281733;28;20076;-63
2022/09/18 09:52:42;;;;;;;4.32;1.70;;;;;;;;;;10283040;28;20080;-63
2022/09/18 09:57:45;;;;;;;7.38;1.48;;;;;;;;;;10279222;28;20103;-63
2022/09/18 10:02:54;;;;;;;6.72;2.03;;;;;;;;;;10276977;28;20525;-63
2022/09/18 10:08:01;;;;;;;6.85;1.50;;;;;;;;;;10278864;28;20073;-62
2022/09/18 10:13:01;;;;;;;10.32;2.50;;;;;;;;;;10275640;28;20048;-63
2022/09/18 10:18:03;;;;;;;2.60;1.15;;;;;;;;;;10283225;28;20084;-62
2022/09/18 10:23:06;;;;;;;4.90;1.58;;;;;;;;;;10288254;28;20076;-63
2022/09/18 10:28:05;;;;;;;7.78;2.17;;;;;;;;;;10288282;28;20426;-64
2022/09/18 10:33:03;;;;;;;5.28;1.42;;;;;;;;;;10280790;28;20087;-62
2022/09/18 10:38:23;;;;;;;3.53;1.63;;;;;;;;;;10285980;28;20529;-63
2022/09/18 10:43:24;;;;;;;12.50;1.88;;;;;;;;;;10279299;28;20460;-63
2022/09/18 10:48:26;;;;;;;9.00;1.80;;;;;;;;;;10282146;28;20080;-63
2022/09/18 10:53:28;;;;;;;10.90;3.45;;;;;;;;;;10281879;28;20079;-63
2022/09/18 10:58:34;;;;;;;5.60;1.50;;;;;;;;;;10278492;28;20068;-63
2022/09/18 11:03:42;;;;;;;11.05;2.63;;;;;;;;;;10278455;28;20139;-63
2022/09/18 11:08:49;;;;;;;14.77;4.07;;;;;;;;;;10280339;28;20080;-63
2022/09/18 11:13:51;;;;;;;2.85;1.80;;;;;;;;;;10280600;28;20049;-63
2022/09/18 11:19:02;;;;;;;10.50;2.70;;;;;;;;;;10284332;28;20522;-64
2022/09/18 11:24:16;;;;;;;9.05;2.40;;;;;;;;;;10281402;28;20326;-63
2022/09/18 11:29:19;;;;;;;6.82;2.70;;;;;;;;;;10278608;28;20083;-63
2022/09/18 11:34:21;;;;;;;11.10;1.90;;;;;;;;;;10287740;28;20526;-63
2022/09/18 11:39:23;;;;;;;5.28;1.65;;;;;;;;;;10283589;28;20092;-63
2022/09/18 11:44:30;;;;;;;7.40;2.65;;;;;;;;;;10280773;28;20080;-62
2022/09/18 11:49:32;;;;;;;14.45;1.13;;;;;;;;;;10281598;28;20081;-63
2022/09/18 11:54:35;;;;;;;6.63;1.40;;;;;;;;;;10286661;28;20094;-61
2022/09/18 11:59:39;;;;;;;5.97;1.65;;;;;;;;;;10287040;28;20084;-63
2022/09/18 12:04:41;;;;;;;7.47;1.42;;;;;;;;;;10284602;28;20133;-63
2022/09/18 12:09:44;;;;;;;8.27;1.80;;;;;;;;;;10292511;28;20083;-63
2022/09/18 12:14:46;;;;;;;6.22;1.33;;;;;;;;;;10278986;28;20389;-63
2022/09/18 12:19:53;;;;;;;3.42;1.30;;;;;;;;;;10293114;28;20076;-63
2022/09/18 12:24:55;;;;;;;4.03;1.60;;;;;;;;;;10285686;28;20160;-63
2022/09/18 12:30:16;;;;;;;11.35;1.70;;;;;;;;;;10281593;28;20072;-64
2022/09/18 12:35:19;;;;;;;8.82;1.30;;;;;;;;;;10286541;28;20068;-63
2022/09/18 12:40:28;;;;;;;5.75;1.77;;;;;;;;;;10285582;28;20072;-62
2022/09/18 12:45:34;;;;;;;7.72;1.83;;;;;;;;;;10284395;28;20162;-62
2022/09/18 12:50:44;;;;;;;4.60;1.75;;;;;;;;;;10284718;28;20072;-62
2022/09/18 12:55:49;;;;;;;5.70;1.50;;;;;;;;;;10289216;28;21924;-61
2022/09/18 13:00:50;;;;;;;10.98;1.65;;;;;;;;;;10282368;28;20068;-63
2022/09/18 13:05:53;;;;;;;4.32;1.70;;;;;;;;;;10279846;28;20451;-63
2022/09/18 13:10:55;;;;;;;3.47;1.60;;;;;;;;;;10278999;28;20057;-63
2022/09/18 13:15:55;;;;;;;6.43;2.00;;;;;;;;;;10280362;28;20083;-63
2022/09/18 13:20:55;;;;;;;9.68;1.90;;;;;;;;;;10280863;28;20517;-62
2022/09/18 13:25:53;;;;;;;6.15;1.73;;;;;;;;;;10280727;28;20494;-62
2022/09/18 13:31:06;;;;;;;9.20;1.63;;;;;;;;;;10282414;28;20076;-63
2022/09/18 13:36:06;;;;;;;9.55;1.23;;;;;;;;;;10282760;28;20110;-61
2022/09/18 13:41:06;;;;;;;11.40;2.00;;;;;;;;;;10283536;28;20071;-62
2022/09/18 13:46:05;;;;;;;10.48;1.60;;;;;;;;;;10289730;28;20079;-62
2022/09/18 13:51:08;;;;;;;9.93;1.90;;;;;;;;;;10282734;28;20076;-62
2022/09/18 13:56:07;;;;;;;3.40;1.52;;;;;;;;;;10290226;28;20167;-62
2022/09/18 14:01:06;;;;;;;5.75;1.98;;;;;;;;;;10281369;28;20079;-62
2022/09/18 14:06:23;;;;;;;11.07;1.50;;;;;;;;;;10282093;28;20072;-63
2022/09/18 14:11:25;;;;;;;6.13;2.10;;;;;;;;;;10280645;28;20537;-63
2022/09/18 14:16:25;;;;;;;4.80;1.42;;;;;;;;;;10282281;28;20089;-63
2022/09/18 14:21:27;;;;;;;9.88;2.38;;;;;;;;;;10284548;28;20434;-63
2022/09/18 14:26:45;;;;;;;4.70;1.50;;;;;;;;;;10280536;28;20080;-64
2022/09/18 14:31:47;;;;;;;10.32;1.45;;;;;;;;;;10276678;28;20075;-64
2022/09/18 14:36:46;;;;;;;4.75;1.23;;;;;;;;;;10277429;28;20451;-64
2022/09/18 14:41:45;;;;;;;5.00;1.20;;;;;;;;;;10281084;28;20084;-64
2022/09/18 14:46:59;;;;;;;4.78;1.60;;;;;;;;;;10281327;28;20104;-65
2022/09/18 14:51:57;;;;;;;5.35;1.13;;;;;;;;;;10281196;28;20079;-66
2022/09/18 14:57:02;;;;;;;9.27;1.98;;;;;;;;;;10281367;28;20076;-63
2022/09/18 15:02:18;;;;;;;1.42;0.93;;;;;;;;;;10278890;28;20078;-64
2022/09/18 15:07:17;;;;;;;2.53;1.30;;;;;;;;;;10293127;28;20425;-63
2022/09/18 15:12:18;;;;;;;2.72;1.15;;;;;;;;;;10280890;28;20076;-63
2022/09/18 15:17:19;;;;;;;1.50;1.00;;;;;;;;;;10282145;28;20072;-62
2022/09/18 15:22:20;;;;;;;7.40;1.40;;;;;;;;;;10279887;28;20087;-63
2022/09/18 15:27:20;;;;;;;2.85;1.00;;;;;;;;;;10291009;28;20056;-61
2022/09/18 15:32:21;;;;;;;8.18;1.52;;;;;;;;;;10289444;28;20064;-63
2022/09/18 15:37:21;;;;;;;1.90;0.88;;;;;;;;;;10293941;28;20068;-62
2022/09/18 15:42:26;;;;;;;4.22;1.10;;;;;;;;;;10293680;28;20103;-63
2022/09/18 15:47:24;;;;;;;;;;;;;;;;;;10290827;28;20373;-62
2022/09/18 15:52:37;;;;;;;2.65;1.02;;;;;;;;;;10285950;28;20392;-63
2022/09/18 15:57:35;;;;;;;1.58;0.90;;;;;;;;;;10287963;28;20075;-63
2022/09/18 16:02:36;;;;;;;1.60;1.45;;;;;;;;;;10286103;28;20510;-63
2022/09/18 16:07:37;;;;;;;5.03;1.85;;;;;;;;;;10282620;28;20072;-62
2022/09/18 16:12:37;;;;;;;1.30;0.90;;;;;;;;;;10285357;28;20406;-62
2022/09/18 16:18:08;;;;;;;13.85;1.08;;;;;;;;;;10292947;28;20076;-63
2022/09/18 16:23:14;;;;;;;4.95;1.15;;;;;;;;;;10287202;28;20076;-63
2022/09/18 16:28:19;;;;;;;5.85;1.10;;;;;;;;;;10289464;28;20065;-62
2022/09/18 16:33:19;;;;;;;4.40;1.20;;;;;;;;;;10287023;28;20111;-64
2022/09/18 16:38:18;;;;;;;3.33;0.98;;;;;;;;;;10279712;28;20084;-63
2022/09/18 16:43:17;;;;;;;4.60;1.30;;;;;;;;;;10288689;28;20065;-62
2022/09/18 16:48:15;;;;;;;5.93;1.20;;;;;;;;;;10280737;28;20048;-62
2022/09/18 16:53:14;;;;;;;4.65;1.17;;;;;;;;;;10278806;28;20786;-63
2022/09/18 16:58:13;;;;;;;2.13;0.90;;;;;;;;;;10281448;28;20084;-62
2022/09/18 17:03:12;;;;;;;4.78;1.05;;;;;;;;;;10283894;28;20072;-62
2022/09/18 17:08:10;;;;;;;6.07;1.10;;;;;;;;;;10286481;28;20091;-62
2022/09/18 17:13:08;;;;;;;2.92;1.27;;;;;;;;;;10277046;28;20068;-62
2022/09/18 17:18:08;;;;;;;1.88;0.90;;;;;;;;;;10279274;28;20086;-61
2022/09/18 17:23:07;;;;;;;4.72;1.20;;;;;;;;;;10287350;28;20084;-61
2022/09/18 17:28:05;;;;;;;2.92;1.38;;;;;;;;;;10288053;28;20072;-64
2022/09/18 17:33:03;;;;;;;2.30;1.13;;;;;;;;;;10279063;28;20475;-65
2022/09/18 17:38:03;;;;;;;2.45;1.55;;;;;;;;;;10278934;28;20072;-66
2022/09/18 17:43:01;;;;;;;6.03;1.60;;;;;;;;;;10277683;28;20063;-68
2022/09/18 17:47:59;;;;;;;2.60;1.55;;;;;;;;;;10280085;28;20079;-65
2022/09/18 17:52:58;;;;;;;6.35;1.80;;;;;;;;;;10282977;28;20818;-66
2022/09/18 17:57:57;;;;;;;7.28;3.88;;;;;;;;;;10278493;28;20080;-67
2022/09/18 18:02:55;;;;;;;4.97;2.22;;;;;;;;;;10290433;28;20060;-65
2022/09/18 18:07:54;;;;;;;3.05;1.08;;;;;;;;;;10277232;28;20065;-66
2022/09/18 18:12:52;;;;;;;7.32;1.05;;;;;;;;;;10286055;28;20704;-67
2022/09/18 18:17:52;;;;;;;3.13;1.25;;;;;;;;;;10287406;28;20076;-66
2022/09/18 18:22:50;;;;;;;2.17;1.52;;;;;;;;;;10288324;28;20057;-66
2022/09/18 18:27:48;;;;;;;1.70;1.20;;;;;;;;;;10296917;28;20044;-66
2022/09/18 18:32:47;;;;;;;2.50;0.75;;;;;;;;;;10279007;28;20079;-66
2022/09/18 18:37:48;;;;;;;1.70;0.80;;;;;;;;;;10295614;28;20607;-65
2022/09/18 18:42:46;;;;;;;2.22;1.30;;;;;;;;;;10290891;28;20068;-65
2022/09/18 18:47:49;;;;;;;2.97;1.45;;;;;;;;;;10284010;28;20100;-65
2022/09/18 18:52:49;;;;;;;6.88;1.70;;;;;;;;;;10284642;28;20076;-65
2022/09/18 18:57:47;;;;;;;1.77;1.58;;;;;;;;;;10280558;28;20079;-65
2022/09/18 19:02:47;;;;;;;5.05;1.48;;;;;;;;;;10283075;28;20076;-64
2022/09/18 19:07:46;;;;;;;4.40;1.52;;;;;;;;;;10274798;28;20069;-64
2022/09/18 19:12:45;;;;;;;1.35;1.15;;;;;;;;;;10282231;28;20236;-64
2022/09/18 19:17:45;;;;;;;3.67;1.70;;;;;;;;;;10285957;28;20060;-65
2022/09/18 19:22:43;;;;;;;4.18;2.60;;;;;;;;;;10281038;28;20087;-65
2022/09/18 19:27:41;;;;;;;6.60;3.80;;;;;;;;;;10282783;28;20067;-65
2022/09/18 19:32:41;;;;;;;6.78;3.85;;;;;;;;;;10279188;28;20506;-65
2022/09/18 19:37:40;;;;;;;10.40;3.35;;;;;;;;;;10283916;28;20080;-64
2022/09/18 19:42:39;;;;;;;5.95;3.80;;;;;;;;;;10282284;28;20065;-65
2022/09/18 19:47:39;;;;;;;9.32;4.60;;;;;;;;;;10281151;28;20068;-64
2022/09/18 19:52:39;;;;;;;12.68;5.18;;;;;;;;;;10280349;28;20079;-64
2022/09/18 19:57:41;;;;;;;7.87;5.00;;;;;;;;;;10280637;28;20075;-65
2022/09/18 20:02:40;;;;;;;8.20;4.45;;;;;;;;;;10287505;28;20365;-64
2022/09/18 20:07:40;;;;;;;7.97;3.70;;;;;;;;;;10287995;28;20052;-64
2022/09/18 20:12:39;;;;;;;6.30;3.13;;;;;;;;;;10275459;28;20118;-64
2022/09/18 20:17:38;;;;;;;5.20;2.72;;;;;;;;;;10280489;28;20561;-65
2022/09/18 20:22:38;;;;;;;5.60;2.50;;;;;;;;;;10286252;28;20900;-65
2022/09/18 20:27:39;;;;;;;4.75;2.05;;;;;;;;;;10288615;28;20475;-65
2022/09/18 20:32:37;;;;;;;3.75;2.25;;;;;;;;;;10300607;28;20107;-65
2022/09/18 20:37:35;;;;;;;4.03;1.73;;;;;;;;;;10301267;28;20549;-65
2022/09/18 20:42:34;;;;;;;2.30;1.65;;;;;;;;;;10287760;28;20072;-66
2022/09/18 20:47:34;;;;;;;1.88;1.45;;;;;;;;;;10286959;28;20044;-64
2022/09/18 20:52:36;;;;;;;2.38;1.63;;;;;;;;;;10286130;28;20087;-64
2022/09/18 20:57:35;;;;;;;1.90;1.52;;;;;;;;;;10287529;28;20075;-64
2022/09/18 21:02:35;;;;;;;3.22;1.70;;;;;;;;;;10285617;28;20068;-65
2022/09/18 21:07:33;;;;;;;2.00;1.42;;;;;;;;;;10286211;28;20069;-64
2022/09/18 21:12:34;;;;;;;4.18;1.85;;;;;;;;;;10286315;28;20036;-64
2022/09/18 21:17:32;;;;;;;3.08;2.03;;;;;;;;;;10286290;28;20068;-64
2022/09/18 21:22:32;;;;;;;2.58;1.73;;;;;;;;;;10285229;28;20080;-64
2022/09/18 21:27:30;;;;;;;3.03;2.35;;;;;;;;;;10285467;28;20076;-64
2022/09/18 21:32:29;;;;;;;2.25;1.77;;;;;;;;;;10285736;28;20072;-64
2022/09/18 21:37:27;;;;;;;2.95;2.25;;;;;;;;;;10285971;28;20037;-64
2022/09/18 21:42:27;;;;;;;3.92;1.35;;;;;;;;;;10285429;28;20073;-65
2022/09/18 21:47:25;;;;;;;2.28;1.58;;;;;;;;;;10285289;28;20072;-64
2022/09/18 21:52:24;;;;;;;3.63;1.92;;;;;;;;;;10285269;28;20076;-65
2022/09/18 21:57:22;;;;;;;3.33;1.90;;;;;;;;;;10285042;28;20076;-64
2022/09/18 22:02:22;;;;;;;3.17;2.20;;;;;;;;;;10282266;28;20083;-64
2022/09/18 22:07:22;;;;;;;4.45;2.28;;;;;;;;;;10288247;28;20084;-65
2022/09/18 22:12:20;;;;;;;3.33;2.22;;;;;;;;;;10285928;28;20065;-65
2022/09/18 22:17:19;;;;;;;3.95;2.70;;;;;;;;;;10285722;28;20068;-64
2022/09/18 22:22:19;;;;;;;3.65;2.28;;;;;;;;;;10286094;28;20079;-65
2022/09/18 22:27:17;;;;;;;4.15;2.38;;;;;;;;;;10284004;28;20083;-64
2022/09/18 22:32:15;;;;;;;3.70;1.67;;;;;;;;;;10283771;28;20076;-64
2022/09/18 22:37:14;;;;;;;2.47;1.77;;;;;;;;;;10286628;28;20067;-64
2022/09/18 22:42:13;;;;;;;2.40;1.60;;;;;;;;;;10281341;28;20075;-64
2022/09/18 22:47:12;;;;;;;2.65;1.75;;;;;;;;;;10281752;28;20060;-64
2022/09/18 22:52:10;;;;;;;2.83;2.00;;;;;;;;;;10281262;28;20072;-65
2022/09/18 22:57:08;;;;;;;4.10;1.55;;;;;;;;;;10279060;28;20067;-65
2022/09/18 23:02:08;;;;;;;1.65;1.33;;;;;;;;;;10282829;28;20073;-65
2022/09/18 23:07:06;;;;;;;2.67;1.58;;;;;;;;;;10283189;28;20072;-65
2022/09/18 23:12:04;;;;;;;2.60;1.50;;;;;;;;;;10282477;28;20033;-65
2022/09/18 23:17:03;;;;;;;2.15;1.65;;;;;;;;;;10282631;28;20037;-65
2022/09/18 23:22:02;;;;;;;3.80;2.50;;;;;;;;;;10282469;28;20073;-64
2022/09/18 23:27:00;;;;;;;3.22;2.65;;;;;;;;;;10282682;28;20044;-66
2022/09/18 23:31:59;;;;;;;3.85;1.85;;;;;;;;;;10281241;28;20044;-64
2022/09/18 23:36:58;;;;;;;4.18;1.98;;;;;;;;;;10281197;28;20079;-65
2022/09/18 23:42:01;;;;;;;2.65;1.70;;;;;;;;;;10281527;28;20076;-64
2022/09/18 23:47:00;;;;;;;4.63;1.70;;;;;;;;;;10282277;28;20072;-63
2022/09/18 23:52:00;;;;;;;4.25;1.80;;;;;;;;;;10290071;28;20512;-64
2022/09/18 23:57:00;;;;;;;1.95;1.60;;;;;;;;;;10289491;28;20045;-64
